Monument, Oregon
Current Conditions -  °F | °C
As of 6:35 PM on Wednesday 26 Nov 2014 (Local Time) from KGCD Reporting Station
Clear Clear  
Wind Chill: 44°   Ceiling: Unl
Heat Index: 48°   Visibility: 10mi
Dew Point: 38°   Wind: 9mph
Humidity: 68%   Direction: 100°E
Pressure: 30.16"   Gusts: NA
Location:  44.82°N, 119.42°W
Report Text: KGCD 270235Z AUTO 10008KT 10SM CLR 09/03 A3016 RMK AO2 T00900034
Loading
Personal Weather Stations






























Interactive Weather Map New forecast layout! Learn more

10-Day Weather Forecast

Advertisements
Track Severe Weather on mobile